Weather observations for the past three days for
Walla Walla Regional Airport
Metric (Imperial)
Date Time (pdt) Wind (kph) Vis. (km) Weather Sky Cond. Temperature (ºC) Relative Humidity Wind Chill (°C) Heat Index (°C) Pressure Precipitation (cm)
Air Dwpt 6 hour altimeter (cm) sea level (mb) 1 hr 3 hr 6 hr
Max. Min.
10 12:53 SW 13 16.09 Fair CLR 21.7 8.9 44% 76.07 1013.8
10 11:53 Vrbl 6 16.09 Fair CLR 20 7.2 44% 76.05 1013.7
10 10:53 W 15 16.09 Fair CLR 19.4 6.7 19.4 10.6 44% 76.1 1014.2
10 09:53 S 6 16.09 Fair CLR 18.3 7.2 49% 76.1 1014.4
10 08:53 S 7 16.09 Fair CLR 16.1 6.7 54% 76.1 1014.4
10 07:53 S 9 16.09 Fair CLR 14.4 6.1 58% 76.1 1014.4
10 06:53 S 9 16.09 Fair CLR 12.8 6.1 64% 76.07 1013.9
10 05:53 Calm 16.09 Fair CLR 10.6 5 69% 76.07 1013.8
10 04:53 S 6 16.09 Fair CLR 12.2 5 15 10 62% 76.07 1013.9
10 03:53 Calm 16.09 Fair CLR 10.6 4.4 66% 76.07 1013.8
10 02:53 Calm 16.09 Fair CLR 10.6 5 69% 76.07 1014.0
10 01:53 E 9 16.09 Fair CLR 12.8 4.4 57% 76.1 1014.3
10 00:53 E 6 16.09 Fair CLR 12.2 4.4 59% 76.15 1014.8
09 23:53 E 9 16.09 Fair CLR 13.3 4.4 55% 76.12 1014.8
09 22:53 E 9 16.09 Fair CLR 15 5.6 23.9 12.2 54% 76.15 1015.0
09 21:53 E 17 16.09 Fair CLR 12.2 7.8 75% 76.17 1015.6
09 20:53 E 15 16.09 Fair CLR 15.6 7.2 58% 76.2 1015.8
09 19:53 E 13 16.09 Fair CLR 18.9 8.3 50% 76.2 1015.7
09 18:53 NE 7 16.09 Fair CLR 22.2 5.6 34% 76.23 1015.9
09 17:53 E 7 16.09 Fair CLR 23.3 2.2 25% 76.28 1016.5
09 16:53 Vrbl 7 16.09 Fair CLR 23.9 0.6 24.4 18.3 22% 25 76.3 1017.0
09 15:53 NW 11 16.09 Fair CLR 23.3 2.8 26% 76.33 1017.4
09 14:53 Calm 16.09 Fair CLR 22.8 4.4 30% 76.38 1018.0
09 13:53 NW 13 16.09 Fair CLR 22.2 5 33% 76.43 1018.7
09 12:53 SW 9 16.09 Fair CLR 21.1 6.1 38% 76.45 1019.1
09 11:53 S 7 16.09 Fair CLR 20 5.6 39% 76.53 1020.1
09 10:53 S 9 16.09 Fair CLR 18.9 5.6 18.9 10.6 42% 76.58 1020.7
09 09:53 Vrbl 9 16.09 Fair CLR 17.2 6.1 48% 76.61 1021.0
09 08:53 SW 15 16.09 Fair CLR 16.7 6.1 50% 76.58 1020.8
09 07:53 S 11 16.09 Fair CLR 15 5.6 54% 76.58 1020.7
09 06:53 S 9 16.09 Fair CLR 12.2 6.1 67% 76.58 1020.6
09 05:53 S 13 16.09 Fair CLR 11.1 5.6 69% 76.56 1020.4
09 04:53 S 17 16.09 Fair CLR 11.1 5.6 14.4 11.1 69% 76.56 1020.2
09 03:53 S 15 16.09 Fair CLR 11.1 5.6 69% 76.56 1020.2
09 02:53 S 17 16.09 Fair CLR 11.1 5.6 69% 76.5 1019.8
09 01:53 S 22 16.09 Fair CLR 12.2 5.6 64% 76.48 1019.5
09 00:53 S 20 16.09 Fair CLR 12.8 5 59% 76.48 1019.2
08 23:53 S 20 16.09 Fair CLR 13.3 5 57% 76.43 1018.8
08 22:53 S 17 16.09 Fair CLR 14.4 3.9 23.9 14.4 50% 76.4 1018.4
08 21:53 S 19 16.09 Fair CLR 15.6 3.3 44% 76.35 1017.7
08 20:53 S 19 16.09 Fair CLR 17.8 2.2 35% 76.28 1016.5
08 19:53 SW 20 16.09 Fair CLR 19.4 1.1 30% 76.2 1015.4
08 18:53 W 24 G 41 16.09 Fair CLR 22.2 -0.6 22% 76.12 1014.5
08 17:53 W 31 G 43 16.09 Fair CLR 23.3 -2.8 17% 76.12 1014.6
08 16:53 SW 28 G 48 16.09 A Few Clouds FEW120 23.9 -5.6 24.4 18.9 14% 24 76.12 1014.5
08 15:53 W 22 16.09 Fair CLR 23.9 -7.8 11% 24 76.15 1014.9
08 14:53 W 28 16.09 Fair CLR 23.3 -1.1 20% 76.17 1015.2
08 13:53 SW 31 G 43 16.09 Fair CLR 22.8 0 22% 76.15 1014.9
08 12:53 S 20 G 35 16.09 Fair CLR 21.1 2.2 29% 76.17 1015.2
08 11:53 SW 26 16.09 Fair CLR 20 1.1 28% 76.2 1015.5
08 10:53 SW 31 G 50 16.09 Fair CLR 18.9 4.4 18.9 12.2 39% 76.23 1016.1
08 09:53 S 26 16.09 Fair CLR 18.9 4.4 39% 76.2 1015.4
08 08:53 S 33 G 43 16.09 Fair and Breezy CLR 18.3 2.8 36% 76.17 1015.2
08 07:53 S 30 16.09 Fair CLR 17.2 2.2 37% 76.15 1014.9
08 06:53 S 26 16.09 Fair CLR 16.1 2.2 39% 76.15 1014.6
08 05:53 S 19 16.09 Fair CLR 13.3 -2.8 33% 76.12 1014.3
08 04:53 S 17 16.09 Fair CLR 12.8 -3.9 16.7 10.6 31% 76.07 1013.9
08 03:53 SE 9 16.09 Fair CLR 12.2 -4.4 31% 76.05 1013.6
08 02:53 S 13 16.09 Fair CLR 13.9 -5 27% 76.07 1013.7
08 01:53 S 17 16.09 Fair CLR 14.4 -3.9 28% 76.05 1013.5
08 00:53 S 15 16.09 Fair CLR 15 -1.7 32% 76.05 1013.4
07 23:53 S 17 16.09 Fair CLR 16.1 -0.6 32% 76.02 1013.3
07 22:53 SE 9 16.09 Fair CLR 16.7 1.7 24.4 16.1 37% 76 1012.8
07 21:53 SE 11 16.09 Fair CLR 16.7 1.1 35% 75.97 1012.6
07 20:53 SE 13 16.09 Fair CLR 17.8 1.7 34% 75.97 1012.6
07 19:53 S 6 16.09 Fair CLR 20 0 26% 75.95 1012.2
07 18:53 SW 9 16.09 Fair CLR 22.8 -2.8 18% 75.95 1012.1
07 17:53 W 7 16.09 Fair CLR 23.9 -0.6 20% 24 75.97 1012.5
07 16:53 Calm 16.09 Fair CLR 23.9 0 24.4 20 21% 24 76 1012.6
07 15:53 W 11 G 28 16.09 Fair CLR 23.9 0 21% 24 76.02 1013.2
07 14:53 S 17 G 31 16.09 Fair CLR 23.3 1.1 23% 76.07 1013.9
07 13:53 S 24 G 43 16.09 Fair CLR 22.8 2.8 27% 76.12 1014.5
Date Time (pdt) Wind (kph) Vis. (km) Weather Sky Cond. Air Dwpt Max. Min. Relative Humidity Wind Chill (°C) Heat Index (°C) altimeter (cm) sea level (mb) 1 hr 3 hr 6 hr
6 hour
Temperature (ºC) Pressure Precipitation (cm)